createdAt,value
2017-07-18T00:01:22.230Z,101098.19
2017-07-18T00:03:51.315Z,101101.97
2017-07-18T00:06:20.386Z,101093.15
2017-07-18T00:08:49.437Z,101096.16
2017-07-18T00:11:19.266Z,101088.84
2017-07-18T00:13:48.401Z,101091.58
2017-07-18T00:16:17.452Z,101087.84
2017-07-18T00:18:46.551Z,101083.23
2017-07-18T00:21:16.376Z,101082.36
2017-07-18T00:23:45.431Z,101080.59
2017-07-18T00:26:15.314Z,101083.95
2017-07-18T00:28:44.350Z,101081.20
2017-07-18T00:31:14.187Z,101080.02
2017-07-18T00:33:43.234Z,101080.30
2017-07-18T00:36:12.319Z,101073.34
2017-07-18T00:38:41.388Z,101078.28
2017-07-18T00:41:10.511Z,101079.47
2017-07-18T00:43:39.557Z,101077.33
2017-07-18T00:46:08.645Z,101081.42
2017-07-18T00:48:38.497Z,101080.42
2017-07-18T00:51:07.574Z,101082.81
2017-07-18T00:53:36.672Z,101085.30
2017-07-18T00:56:05.747Z,101082.22
2017-07-18T00:58:34.823Z,101081.77
2017-07-18T01:01:03.901Z,101082.50
2017-07-18T01:03:32.974Z,101081.13
2017-07-18T01:06:02.080Z,101077.39
2017-07-18T01:08:31.137Z,101079.22
2017-07-18T01:11:00.231Z,101076.38
2017-07-18T01:13:29.285Z,101086.06
2017-07-18T01:15:58.353Z,101083.41
2017-07-18T01:18:27.425Z,101082.89
2017-07-18T01:20:56.478Z,101082.23
2017-07-18T01:23:25.533Z,101087.59
2017-07-18T01:25:54.591Z,101083.77
2017-07-18T01:28:23.734Z,101086.53
2017-07-18T01:30:52.774Z,101084.87
2017-07-18T01:33:21.840Z,101085.34
2017-07-18T01:35:50.934Z,101088.26
2017-07-18T01:38:19.992Z,101089.23
2017-07-18T01:40:49.036Z,101087.65
2017-07-18T01:43:18.134Z,101081.73
2017-07-18T01:45:47.200Z,101074.66
2017-07-18T01:48:16.301Z,101071.70
2017-07-18T01:50:45.393Z,101070.01
2017-07-18T01:53:14.456Z,101067.50
2017-07-18T01:55:43.536Z,101059.67
2017-07-18T01:58:12.614Z,101054.75
2017-07-18T02:00:42.433Z,101059.19
2017-07-18T02:03:12.307Z,101057.04
2017-07-18T02:05:41.404Z,101059.53
2017-07-18T02:08:10.485Z,101061.34
2017-07-18T02:10:39.566Z,101061.12
2017-07-18T02:13:08.636Z,101062.69
2017-07-18T02:15:37.711Z,101062.00
2017-07-18T02:18:07.599Z,101057.48
2017-07-18T02:20:36.624Z,101052.98
2017-07-18T02:23:06.464Z,101052.12
2017-07-18T02:25:35.504Z,101049.80
2017-07-18T02:28:04.705Z,101055.11
2017-07-18T02:30:33.767Z,101052.70
2017-07-18T02:33:02.887Z,101046.77
2017-07-18T02:35:31.952Z,101048.78
2017-07-18T02:38:01.017Z,101044.88
2017-07-18T02:40:30.868Z,101048.59
2017-07-18T02:43:00.068Z,101038.69
2017-07-18T02:45:29.146Z,101036.84
2017-07-18T02:47:58.208Z,101043.69
2017-07-18T02:50:27.267Z,101041.23
2017-07-18T02:52:56.309Z,101040.67
2017-07-18T02:55:26.162Z,101038.41
2017-07-18T02:57:55.235Z,101044.55
2017-07-18T03:00:24.296Z,101037.24
2017-07-18T03:02:53.374Z,101034.64
2017-07-18T03:05:22.417Z,101037.48
2017-07-18T03:07:51.490Z,101030.64
2017-07-18T03:10:21.354Z,101035.25
2017-07-18T03:12:50.476Z,101026.55
2017-07-18T03:15:19.551Z,101026.14
2017-07-18T03:17:48.599Z,101028.01
2017-07-18T03:20:18.461Z,101025.73
2017-07-18T03:22:47.531Z,101028.98
2017-07-18T03:25:16.700Z,101028.09
2017-07-18T03:27:46.571Z,101028.66
2017-07-18T03:30:15.597Z,101028.77
2017-07-18T03:32:44.661Z,101035.07
2017-07-18T03:35:13.820Z,101033.54
2017-07-18T03:37:43.617Z,101034.98
2017-07-18T03:40:12.674Z,101029.21
2017-07-18T03:42:41.806Z,101031.78
2017-07-18T03:45:11.643Z,101032.05
2017-07-18T03:47:40.716Z,101024.02
2017-07-18T03:50:10.537Z,101027.15
2017-07-18T03:52:39.606Z,101028.85
2017-07-18T03:55:08.680Z,101031.95
2017-07-18T03:57:37.751Z,101033.89
2017-07-18T04:00:06.818Z,101036.05
2017-07-18T04:02:36.054Z,101036.62
2017-07-18T04:05:05.104Z,101038.55
2017-07-18T04:07:34.169Z,101034.73
2017-07-18T04:10:03.279Z,101035.77
2017-07-18T04:12:32.314Z,101036.17
2017-07-18T04:15:02.433Z,101042.16
2017-07-18T04:17:31.535Z,101043.92
2017-07-18T04:20:00.856Z,101032.88
2017-07-18T04:22:29.937Z,101036.91
2017-07-18T04:24:59.051Z,101043.08
2017-07-18T04:27:28.888Z,101043.25
2017-07-18T04:29:57.985Z,101042.55
2017-07-18T04:32:27.025Z,101047.45
2017-07-18T04:34:56.112Z,101049.28
2017-07-18T04:37:25.165Z,101051.44
2017-07-18T04:39:54.235Z,101048.54
2017-07-18T04:42:23.336Z,101050.81
2017-07-18T04:44:52.394Z,101041.23
2017-07-18T04:47:21.451Z,101045.59
2017-07-18T04:49:50.508Z,101042.17
2017-07-18T04:52:19.591Z,101047.62
2017-07-18T04:54:48.729Z,101039.94
2017-07-18T04:57:17.810Z,101040.21
2017-07-18T04:59:46.875Z,101039.45
2017-07-18T05:02:15.957Z,101044.42
2017-07-18T05:04:45.047Z,101043.97
2017-07-18T05:07:14.131Z,101037.19
2017-07-18T05:09:43.191Z,101029.46
2017-07-18T05:12:13.162Z,101032.55
2017-07-18T05:14:42.245Z,101035.36
2017-07-18T05:17:12.086Z,101038.09
2017-07-18T05:19:41.199Z,101036.13
2017-07-18T05:22:10.276Z,101032.66
2017-07-18T05:24:39.357Z,101028.41
2017-07-18T05:27:08.423Z,101032.10
2017-07-18T05:29:37.487Z,101028.62
2017-07-18T05:32:06.613Z,101038.24
2017-07-18T05:34:36.458Z,101040.05
2017-07-18T05:37:05.496Z,101036.95
2017-07-18T05:39:34.592Z,101030.08
2017-07-18T05:42:03.781Z,101034.73
2017-07-18T05:44:33.178Z,101029.30
2017-07-18T05:47:02.241Z,101029.05
2017-07-18T05:49:31.295Z,101026.86
2017-07-18T05:52:00.386Z,101030.64
2017-07-18T05:54:29.501Z,101026.30
2017-07-18T05:56:58.577Z,101026.31
2017-07-18T05:59:27.610Z,101027.80
2017-07-18T06:01:56.717Z,101034.14
2017-07-18T06:04:26.524Z,101029.72
2017-07-18T06:06:55.601Z,101031.93
2017-07-18T06:09:25.428Z,101038.25
2017-07-18T06:11:54.497Z,101040.42
2017-07-18T06:14:24.341Z,101031.66
2017-07-18T06:16:53.379Z,101026.82
2017-07-18T06:19:22.440Z,101033.71
2017-07-18T06:21:51.517Z,101034.64
2017-07-18T06:24:20.601Z,101033.66
2017-07-18T06:26:49.670Z,101033.46
2017-07-18T06:29:18.754Z,101028.88
2017-07-18T06:31:47.825Z,101025.95
2017-07-18T06:34:16.886Z,101024.70
2017-07-18T06:36:46.727Z,101025.41
2017-07-18T06:39:15.789Z,101016.52
2017-07-18T06:41:45.591Z,101018.03
2017-07-18T06:44:14.679Z,101013.66
2017-07-18T06:46:43.728Z,101020.60
2017-07-18T06:49:13.654Z,101025.71
2017-07-18T06:51:42.966Z,101018.86
2017-07-18T06:54:12.030Z,101015.66
2017-07-18T06:56:41.087Z,101017.39
2017-07-18T06:59:10.934Z,101016.02
2017-07-18T07:01:39.996Z,101014.15
2017-07-18T07:04:10.037Z,101021.95
2017-07-18T07:06:39.106Z,101020.39
2017-07-18T07:09:08.154Z,101013.13
2017-07-18T07:11:37.283Z,101012.69
2017-07-18T07:14:06.356Z,101012.25
2017-07-18T07:16:35.496Z,101011.33
2017-07-18T07:19:04.565Z,101005.38
2017-07-18T07:21:34.745Z,101000.79
2017-07-18T07:24:04.440Z,101001.95
2017-07-18T07:26:33.776Z,100992.48
2017-07-18T07:29:04.270Z,101002.41
2017-07-18T07:31:33.345Z,100996.65
2017-07-18T07:34:02.386Z,100994.06
2017-07-18T07:36:31.479Z,100991.06
2017-07-18T07:39:00.537Z,100990.59
2017-07-18T07:41:30.370Z,100996.06
2017-07-18T07:43:59.442Z,100999.95
2017-07-18T07:46:29.273Z,101005.55
2017-07-18T07:48:58.346Z,100988.67
2017-07-18T07:51:27.414Z,100994.22
2017-07-18T07:53:56.832Z,100988.83
2017-07-18T07:56:25.916Z,100993.00
2017-07-18T07:58:54.985Z,100988.48
2017-07-18T08:01:24.043Z,100984.42
2017-07-18T08:03:53.122Z,100992.62
2017-07-18T08:06:22.933Z,100988.97
2017-07-18T08:08:51.986Z,100990.53
2017-07-18T08:11:21.076Z,100990.42
2017-07-18T08:13:50.128Z,100989.94
2017-07-18T08:16:19.952Z,100987.77
2017-07-18T08:18:49.794Z,100989.81
2017-07-18T08:21:18.865Z,100983.97
2017-07-18T08:23:48.705Z,100981.59
2017-07-18T08:26:17.834Z,100972.02
2017-07-18T08:28:46.902Z,100975.77
2017-07-18T08:31:15.945Z,100967.53
2017-07-18T08:33:45.801Z,100968.58
2017-07-18T08:36:14.836Z,100965.91
2017-07-18T08:38:43.883Z,100956.55
2017-07-18T08:41:12.963Z,100964.20
2017-07-18T08:43:42.769Z,100954.75
2017-07-18T08:46:11.844Z,100958.47
2017-07-18T08:48:41.685Z,100954.31
2017-07-18T08:51:10.759Z,100961.00
2017-07-18T08:53:39.808Z,100950.59
2017-07-18T08:56:08.907Z,100947.14
2017-07-18T08:58:37.970Z,100949.50
2017-07-18T09:01:07.063Z,100948.36
2017-07-18T09:03:36.121Z,100944.21
2017-07-18T09:06:05.226Z,100939.84
2017-07-18T09:08:34.289Z,100939.08
2017-07-18T09:11:03.365Z,100940.09
2017-07-18T09:13:32.421Z,100943.88
2017-07-18T09:16:02.248Z,100942.88
2017-07-18T09:18:31.317Z,100937.93
2017-07-18T09:21:01.172Z,100931.80
2017-07-18T09:23:30.240Z,100927.45
2017-07-18T09:25:59.304Z,100927.66
2017-07-18T09:28:28.376Z,100930.02
2017-07-18T09:30:57.453Z,100925.67
2017-07-18T09:33:26.520Z,100920.51
2017-07-18T09:35:55.697Z,100922.88
2017-07-18T09:38:24.753Z,100918.71
2017-07-18T09:40:53.796Z,100920.06
2017-07-18T09:43:22.840Z,100917.68
2017-07-18T09:45:51.948Z,100916.26
2017-07-18T09:48:20.989Z,100909.14
2017-07-18T09:50:50.795Z,100902.35
2017-07-18T09:53:20.627Z,100908.09
2017-07-18T09:55:50.247Z,100909.64
2017-07-18T09:58:19.311Z,100897.08
2017-07-18T10:00:49.135Z,100895.88
2017-07-18T10:03:18.195Z,100894.46
2017-07-18T10:05:47.282Z,100888.88
2017-07-18T10:08:16.346Z,100889.05
2017-07-18T10:10:45.399Z,100895.70
2017-07-18T10:13:15.224Z,100887.63
2017-07-18T10:15:45.049Z,100887.06
2017-07-18T10:18:14.140Z,100879.69
2017-07-18T10:20:43.184Z,100887.71
2017-07-18T10:23:12.260Z,100885.66
2017-07-18T10:25:41.355Z,100883.52
2017-07-18T10:28:10.397Z,100869.51
2017-07-18T10:30:39.472Z,100872.30
2017-07-18T10:33:08.585Z,100862.22
2017-07-18T10:35:37.600Z,100867.08
2017-07-18T10:38:06.721Z,100855.55
2017-07-18T10:40:35.765Z,100859.29
2017-07-18T10:43:04.812Z,100861.58
2017-07-18T10:45:33.884Z,100862.44
2017-07-18T10:48:03.341Z,100854.02
2017-07-18T10:50:32.373Z,100848.48
2017-07-18T10:53:01.453Z,100851.69
2017-07-18T10:55:30.523Z,100840.57
2017-07-18T10:57:59.603Z,100838.53
2017-07-18T11:00:28.655Z,100839.68
2017-07-18T11:02:57.730Z,100821.72
2017-07-18T11:05:26.777Z,100826.98
2017-07-18T11:07:55.827Z,100826.33
2017-07-18T11:10:24.888Z,100824.41
2017-07-18T11:12:53.941Z,100823.55
2017-07-18T11:15:23.024Z,100832.09
2017-07-18T11:17:53.129Z,100824.40
2017-07-18T11:20:23.011Z,100816.94
2017-07-18T11:22:52.051Z,100827.16
2017-07-18T11:25:21.943Z,100809.45
2017-07-18T11:27:51.008Z,100809.53
2017-07-18T11:30:20.191Z,100806.73
2017-07-18T11:32:49.256Z,100801.80
2017-07-18T11:35:19.072Z,100803.63
2017-07-18T11:37:48.126Z,100791.33
2017-07-18T11:40:17.182Z,100801.66
2017-07-18T11:42:46.245Z,100788.28
2017-07-18T11:45:16.243Z,100776.50
2017-07-18T11:47:45.311Z,100792.55
2017-07-18T11:50:14.368Z,100776.63
2017-07-18T11:52:44.216Z,100784.36
2017-07-18T11:55:13.547Z,100780.32
2017-07-18T11:57:42.616Z,100768.20
2017-07-18T12:00:12.011Z,100799.42
2017-07-18T12:02:41.085Z,100776.14
2017-07-18T12:05:10.146Z,100761.01
2017-07-18T12:07:39.208Z,100767.11
2017-07-18T12:10:08.296Z,100761.68
2017-07-18T12:12:37.379Z,100753.72
2017-07-18T12:15:06.436Z,100751.83
2017-07-18T12:17:36.275Z,100758.19
2017-07-18T12:20:05.353Z,100749.55
2017-07-18T12:22:35.246Z,100749.08
2017-07-18T12:25:04.317Z,100749.68
2017-07-18T12:27:33.388Z,100737.77
2017-07-18T12:30:02.432Z,100737.73
2017-07-18T12:32:31.480Z,100737.27
2017-07-18T12:35:00.532Z,100733.57
2017-07-18T12:37:29.624Z,100732.66
2017-07-18T12:39:58.664Z,100730.20
2017-07-18T12:42:27.706Z,100722.99
2017-07-18T12:44:57.555Z,100720.25
2017-07-18T12:47:26.605Z,100714.50
2017-07-18T12:49:55.673Z,100711.70
2017-07-18T12:52:24.784Z,100704.13
2017-07-18T12:54:53.863Z,100711.14
2017-07-18T12:57:22.929Z,100710.60
2017-07-18T12:59:52.004Z,100700.48
2017-07-18T13:02:21.845Z,100703.27
2017-07-18T13:04:50.899Z,100698.55
2017-07-18T13:07:20.270Z,100694.58
2017-07-18T13:09:49.327Z,100689.79
2017-07-18T13:12:18.384Z,100695.63
2017-07-18T13:14:47.447Z,100690.19
2017-07-18T13:17:16.521Z,100694.55
2017-07-18T13:19:45.551Z,100680.74
2017-07-18T13:22:14.633Z,100679.92
2017-07-18T13:24:43.716Z,100674.37
2017-07-18T13:27:12.750Z,100671.30
2017-07-18T13:29:41.826Z,100671.59
2017-07-18T13:32:11.008Z,100669.19
2017-07-18T13:34:40.077Z,100658.95
2017-07-18T13:37:09.138Z,100660.92
2017-07-18T13:39:38.201Z,100649.59
2017-07-18T13:42:07.262Z,100653.48
2017-07-18T13:44:36.331Z,100642.95
2017-07-18T13:47:06.156Z,100638.54
2017-07-18T13:49:36.012Z,100642.02
2017-07-18T13:52:05.070Z,100643.16
2017-07-18T13:54:34.895Z,100635.20
2017-07-18T13:57:03.987Z,100642.17
2017-07-18T13:59:33.061Z,100632.39
2017-07-18T14:02:02.957Z,100630.08
2017-07-18T14:04:32.085Z,100634.80
2017-07-18T14:07:01.141Z,100619.74
2017-07-18T14:09:30.182Z,100616.66
2017-07-18T14:11:59.248Z,100614.42
2017-07-18T14:14:29.072Z,100622.38
2017-07-18T14:16:58.154Z,100606.94
2017-07-18T14:19:27.972Z,100602.70
2017-07-18T14:21:57.840Z,100592.98
2017-07-18T14:24:26.904Z,100595.42
2017-07-18T14:26:56.116Z,100589.63
2017-07-18T14:29:25.167Z,100587.66
2017-07-18T14:31:55.065Z,100592.54
2017-07-18T14:34:24.116Z,100590.25
2017-07-18T14:36:53.191Z,100587.38
2017-07-18T14:39:22.241Z,100586.62
2017-07-18T14:41:51.333Z,100579.50
2017-07-18T14:44:20.372Z,100571.88
2017-07-18T14:46:50.432Z,100578.08
2017-07-18T14:49:19.573Z,100573.64
2017-07-18T14:51:48.615Z,100576.91
2017-07-18T14:54:17.687Z,100568.09
2017-07-18T14:56:46.738Z,100572.67
2017-07-18T14:59:15.872Z,100568.47
2017-07-18T15:01:44.924Z,100559.67
2017-07-18T15:04:14.526Z,100565.16
2017-07-18T15:06:43.829Z,100556.86
2017-07-18T15:09:12.882Z,100547.17
2017-07-18T15:11:41.998Z,100549.88
2017-07-18T15:14:11.041Z,100544.75
2017-07-18T15:16:40.861Z,100538.80
2017-07-18T15:19:10.706Z,100535.98
2017-07-18T15:21:39.788Z,100535.47
2017-07-18T15:24:08.863Z,100533.01
2017-07-18T15:26:38.705Z,100537.27
2017-07-18T15:29:07.784Z,100526.95
2017-07-18T15:31:36.870Z,100529.14
2017-07-18T15:34:06.748Z,100528.67
2017-07-18T15:36:35.789Z,100521.97
2017-07-18T15:39:04.912Z,100521.19
2017-07-18T15:41:33.931Z,100513.93
2017-07-18T15:44:03.023Z,100509.63
2017-07-18T15:46:32.136Z,100512.51
2017-07-18T15:49:01.182Z,100509.09
2017-07-18T15:51:31.069Z,100503.52
2017-07-18T15:54:01.715Z,100506.91
2017-07-18T15:56:30.794Z,100495.36
2017-07-18T15:59:00.612Z,100493.16
2017-07-18T16:01:29.687Z,100492.04
2017-07-18T16:03:58.761Z,100488.58
2017-07-18T16:06:27.825Z,100482.53
2017-07-18T16:08:56.877Z,100485.33
2017-07-18T16:11:25.976Z,100473.34
2017-07-18T16:13:55.790Z,100476.94
2017-07-18T16:16:25.620Z,100471.06
2017-07-18T16:18:54.669Z,100472.53
2017-07-18T16:21:23.793Z,100468.46
2017-07-18T16:23:52.808Z,100473.89
2017-07-18T16:26:21.892Z,100466.34
2017-07-18T16:28:51.795Z,100468.39
2017-07-18T16:31:20.835Z,100462.70
2017-07-18T16:33:49.936Z,100458.91
2017-07-18T16:36:18.980Z,100475.28
2017-07-18T16:38:48.844Z,100467.73
2017-07-18T16:41:17.925Z,100462.38
2017-07-18T16:43:47.000Z,100457.27
2017-07-18T16:46:16.832Z,100455.50
2017-07-18T16:48:46.155Z,100456.55
2017-07-18T16:51:15.249Z,100451.63
2017-07-18T16:53:44.444Z,100450.84
2017-07-18T16:56:13.508Z,100452.43
2017-07-18T16:58:42.582Z,100449.86
2017-07-18T17:01:11.642Z,100456.16
2017-07-18T17:03:40.724Z,100454.89
2017-07-18T17:06:09.777Z,100457.13
2017-07-18T17:08:39.605Z,100443.67
2017-07-18T17:11:08.682Z,100449.38
2017-07-18T17:13:37.720Z,100441.64
2017-07-18T17:16:06.812Z,100451.73
2017-07-18T17:18:35.856Z,100456.88
2017-07-18T17:21:05.699Z,100454.80
2017-07-18T17:23:35.521Z,100463.87
2017-07-18T17:26:04.547Z,100449.32
2017-07-18T17:28:33.624Z,100452.53
2017-07-18T17:31:02.976Z,100446.44
2017-07-18T17:33:32.037Z,100444.83
2017-07-18T17:36:01.152Z,100448.09
2017-07-18T17:38:30.225Z,100446.47
2017-07-18T17:40:59.323Z,100445.86
2017-07-18T17:43:28.358Z,100445.81
2017-07-18T17:45:58.176Z,100445.11
2017-07-18T17:48:27.239Z,100451.04
2017-07-18T17:50:56.339Z,100448.38
2017-07-18T17:53:25.401Z,100446.43
2017-07-18T17:55:54.473Z,100443.69
2017-07-18T17:58:23.559Z,100446.91
2017-07-18T18:00:52.609Z,100443.03
2017-07-18T18:03:21.655Z,100449.14
2017-07-18T18:05:50.708Z,100448.05
2017-07-18T18:08:19.768Z,100443.09
2017-07-18T18:10:48.845Z,100444.31
2017-07-18T18:13:17.969Z,100445.92
2017-07-18T18:15:47.055Z,100453.60
2017-07-18T18:18:16.132Z,100460.92
2017-07-18T18:20:45.182Z,100459.57
2017-07-18T18:23:14.260Z,100456.05
2017-07-18T18:25:43.305Z,100452.30
2017-07-18T18:28:12.352Z,100448.17
2017-07-18T18:30:41.422Z,100441.90
2017-07-18T18:33:10.514Z,100442.72
2017-07-18T18:35:39.778Z,100442.98
2017-07-18T18:38:09.186Z,100440.23
2017-07-18T18:40:39.013Z,100435.78
2017-07-18T18:43:08.121Z,100434.26
2017-07-18T18:45:37.178Z,100435.73
2017-07-18T18:48:07.256Z,100432.67
2017-07-18T18:50:36.352Z,100432.02
2017-07-18T18:53:05.397Z,100429.30
2017-07-18T18:55:35.264Z,100435.21
2017-07-18T18:58:04.697Z,100431.36
2017-07-18T19:00:33.724Z,100429.83
2017-07-18T19:03:02.791Z,100423.19
2017-07-18T19:05:32.643Z,100417.94
2017-07-18T19:08:01.717Z,100416.41
2017-07-18T19:10:30.777Z,100419.47
2017-07-18T19:12:59.846Z,100420.36
2017-07-18T19:15:28.920Z,100421.42
2017-07-18T19:17:58.004Z,100422.06
2017-07-18T19:20:27.084Z,100426.38
2017-07-18T19:22:56.915Z,100414.73
2017-07-18T19:25:26.213Z,100421.78
2017-07-18T19:27:55.266Z,100415.19
2017-07-18T19:30:24.646Z,100416.84
2017-07-18T19:32:53.710Z,100423.46
2017-07-18T19:35:22.817Z,100414.83
2017-07-18T19:37:51.860Z,100418.30
2017-07-18T19:40:20.926Z,100416.98
2017-07-18T19:42:49.994Z,100415.23
2017-07-18T19:45:19.060Z,100417.84
2017-07-18T19:47:48.893Z,100419.67
2017-07-18T19:50:17.940Z,100413.95
2017-07-18T19:52:47.011Z,100420.37
2017-07-18T19:55:16.278Z,100419.86
2017-07-18T19:57:45.544Z,100426.48
2017-07-18T20:00:14.612Z,100424.41
2017-07-18T20:02:43.677Z,100417.77
2017-07-18T20:05:12.747Z,100422.38
2017-07-18T20:07:42.192Z,100414.47
2017-07-18T20:10:11.263Z,100419.45
2017-07-18T20:12:40.314Z,100409.19
2017-07-18T20:15:09.521Z,100415.01
2017-07-18T20:17:38.612Z,100412.22
2017-07-18T20:20:07.696Z,100407.50
2017-07-18T20:22:36.804Z,100405.95
2017-07-18T20:25:05.929Z,100401.81
2017-07-18T20:27:35.764Z,100398.08
2017-07-18T20:30:04.822Z,100401.65
2017-07-18T20:32:33.864Z,100404.67
2017-07-18T20:35:02.997Z,100398.71
2017-07-18T20:37:32.017Z,100399.53
2017-07-18T20:40:01.849Z,100397.77
2017-07-18T20:42:31.154Z,100392.82
2017-07-18T20:45:00.225Z,100393.41
2017-07-18T20:47:30.048Z,100390.48
2017-07-18T20:49:59.874Z,100390.48
2017-07-18T20:52:28.954Z,100390.89
2017-07-18T20:54:59.055Z,100396.23
2017-07-18T20:57:28.096Z,100394.86
2017-07-18T20:59:57.176Z,100380.99
2017-07-18T21:02:26.222Z,100387.16
2017-07-18T21:04:55.283Z,100371.73
2017-07-18T21:07:24.354Z,100378.48
2017-07-18T21:09:53.425Z,100375.12
2017-07-18T21:12:23.271Z,100373.56
2017-07-18T21:14:52.332Z,100376.14
2017-07-18T21:17:22.362Z,100377.73
2017-07-18T21:19:52.168Z,100372.22
2017-07-18T21:22:22.010Z,100371.44
2017-07-18T21:24:51.084Z,100378.80
2017-07-18T21:27:20.157Z,100378.39
2017-07-18T21:29:49.220Z,100379.63
2017-07-18T21:32:18.570Z,100371.91
2017-07-18T21:34:48.402Z,100381.02
2017-07-18T21:37:17.467Z,100383.78
2017-07-18T21:39:47.294Z,100385.59
2017-07-18T21:42:17.123Z,100384.20
2017-07-18T21:44:46.193Z,100382.02
2017-07-18T21:47:15.237Z,100385.59
2017-07-18T21:49:44.314Z,100383.98
2017-07-18T21:52:13.383Z,100373.11
2017-07-18T21:54:43.219Z,100374.72
2017-07-18T21:57:12.327Z,100370.97
2017-07-18T21:59:41.374Z,100369.37
2017-07-18T22:02:10.458Z,100362.85
2017-07-18T22:04:39.540Z,100363.05
2017-07-18T22:07:08.573Z,100361.27
2017-07-18T22:09:38.404Z,100360.69
2017-07-18T22:12:07.487Z,100361.28
2017-07-18T22:14:37.305Z,100357.14
2017-07-18T22:17:06.378Z,100352.98
2017-07-18T22:19:36.205Z,100348.63
2017-07-18T22:22:06.294Z,100341.33
2017-07-18T22:24:35.347Z,100344.48
2017-07-18T22:27:04.425Z,100345.48
2017-07-18T22:29:33.480Z,100341.52
2017-07-18T22:32:02.545Z,100340.52
2017-07-18T22:34:31.617Z,100338.94
2017-07-18T22:37:01.598Z,100337.95
2017-07-18T22:39:31.434Z,100335.59
2017-07-18T22:42:02.018Z,100332.04
2017-07-18T22:44:31.100Z,100333.02
2017-07-18T22:47:00.154Z,100328.28
2017-07-18T22:49:29.233Z,100329.27
2017-07-18T22:51:59.064Z,100333.22
2017-07-18T22:54:28.107Z,100333.04
2017-07-18T22:56:57.964Z,100330.83
2017-07-18T22:59:27.033Z,100333.41
2017-07-18T23:01:56.097Z,100326.09
2017-07-18T23:04:25.151Z,100332.02
2017-07-18T23:06:54.216Z,100330.45
2017-07-18T23:09:23.264Z,100331.43
2017-07-18T23:11:52.325Z,100323.52
2017-07-18T23:14:22.139Z,100321.35
2017-07-18T23:16:51.973Z,100325.08
2017-07-18T23:19:21.049Z,100330.80
2017-07-18T23:21:50.860Z,100321.52
2017-07-18T23:24:20.685Z,100319.36
2017-07-18T23:26:49.750Z,100315.59
2017-07-18T23:29:18.812Z,100316.00
2017-07-18T23:31:47.887Z,100307.11
2017-07-18T23:34:16.940Z,100305.31
2017-07-18T23:36:46.793Z,100308.88
2017-07-18T23:39:15.869Z,100307.90
2017-07-18T23:41:44.931Z,100306.08
2017-07-18T23:44:14.005Z,100306.31
2017-07-18T23:46:43.067Z,100301.95
2017-07-18T23:49:13.109Z,100302.52
2017-07-18T23:51:42.169Z,100301.54
2017-07-18T23:54:11.240Z,100303.70
2017-07-18T23:56:41.069Z,100312.38
2017-07-18T23:59:10.313Z,100303.45
